TAFOR
Diposting tanggal: 10 Juni 2019

Pukul : 06 - 18 UTC

Isi :

TAF WAGI 180500Z 1806/1818 30008KT 9999 BKN014 TEMPO 1807/1811 20008KT 3000 -TSRA FEW013CB BKN014=